Elrod, Alabama
Current Conditions -  °F | °C
As of 3:53 PM on Thursday 27 Nov 2014 (Local Time) from KTCL Reporting Station
Clear Clear  
Wind Chill: 39°   Ceiling: Unl
Heat Index: 44°   Visibility: 10mi
Dew Point: 28°   Wind: 10mph
Humidity: 53%   Direction: 310°NW
Pressure: 30.45"   Gusts: NA
Location:  33.26°N, 87.79°W
Report Text: KTCL 272153Z 31009KT 10SM CLR 07/M02 A3045 RMK AO2 SLP310 T00671022
Loading
Personal Weather Stations






























Interactive Weather Map New forecast layout! Learn more

10-Day Weather Forecast

Advertisements
Track Severe Weather on mobile